Time;durP1;ratioP1;P1;durP2;ratioP2;P2;SDS_P1;SDS_P2;PMS_P1;PMS_P2;Temp;Humidity;BMP_temperature;BMP_pressure;BME280_temperature;BME280_humidity;BME280_pressure;Samples;Min_cycle;Max_cycle;Signal;HPM_P1;HPM_P2
2021/08/29 00:01:24;;;;;;;8.55;5.18;;;;;;;13.88;100.00;102054.19;5172600;28;20117;-67
2021/08/29 00:03:55;;;;;;;11.60;5.72;;;;;;;13.93;100.00;102051.19;5173326;28;20023;-67
2021/08/29 00:06:26;;;;;;;13.13;5.30;;;;;;;14.01;100.00;102048.75;5173591;28;21163;-67
2021/08/29 00:08:58;;;;;;;12.00;5.95;;;;;;;13.99;100.00;102050.69;5172549;28;20488;-67
2021/08/29 00:11:29;;;;;;;9.95;5.05;;;;;;;14.00;100.00;102045.28;5172199;28;20609;-67
2021/08/29 00:14:00;;;;;;;10.90;5.35;;;;;;;14.10;100.00;102045.41;5171754;28;20129;-67
2021/08/29 00:16:32;;;;;;;8.32;5.50;;;;;;;14.09;100.00;102041.06;5171588;28;20034;-66
2021/08/29 00:19:03;;;;;;;11.18;5.75;;;;;;;14.13;100.00;102024.09;5170859;28;20023;-66
2021/08/29 00:21:34;;;;;;;9.77;4.88;;;;;;;14.14;100.00;102033.66;5166938;28;20034;-67
2021/08/29 00:24:06;;;;;;;10.35;5.40;;;;;;;14.18;100.00;102034.25;5171986;28;20507;-67
2021/08/29 00:26:37;;;;;;;9.05;4.90;;;;;;;14.24;100.00;102034.56;5174006;28;20019;-67
2021/08/29 00:29:08;;;;;;;9.95;5.38;;;;;;;14.27;100.00;102038.75;5173060;28;20105;-67
2021/08/29 00:31:40;;;;;;;12.00;5.20;;;;;;;14.28;100.00;102029.88;5173187;28;20023;-67
2021/08/29 00:34:11;;;;;;;8.57;4.65;;;;;;;14.27;100.00;102036.13;5172462;28;20035;-67
2021/08/29 00:36:42;;;;;;;9.98;5.10;;;;;;;14.32;100.00;102037.44;5171722;28;20082;-67
2021/08/29 00:39:14;;;;;;;9.57;5.38;;;;;;;14.27;100.00;102020.31;5173227;28;20102;-67
2021/08/29 00:41:45;;;;;;;9.90;5.03;;;;;;;14.34;100.00;102029.38;5173294;28;20030;-67
2021/08/29 00:44:18;;;;;;;9.90;4.53;;;;;;;14.36;100.00;102032.75;5171679;28;20027;-67
2021/08/29 00:46:49;;;;;;;8.85;4.40;;;;;;;14.40;100.00;102025.44;5172703;28;20664;-67
2021/08/29 00:49:20;;;;;;;12.93;5.55;;;;;;;14.42;100.00;102026.13;5172328;28;20034;-67
2021/08/29 00:52:03;;;;;;;10.20;5.47;;;;;;;14.41;100.00;102024.47;5172262;28;20027;-67
2021/08/29 00:54:35;;;;;;;9.55;4.88;;;;;;;14.47;100.00;102024.78;5172753;28;20034;-67
2021/08/29 00:57:13;;;;;;;8.80;5.50;;;;;;;14.49;100.00;102028.16;5170616;28;20059;-68
2021/08/29 00:59:44;;;;;;;10.00;5.18;;;;;;;14.40;100.00;102028.06;5172901;28;20034;-67
2021/08/29 01:02:23;;;;;;;11.10;5.50;;;;;;;14.42;100.00;102026.97;5172821;28;20381;-67
2021/08/29 01:05:02;;;;;;;13.02;5.40;;;;;;;14.47;100.00;102016.03;5171747;28;20065;-67
2021/08/29 01:08:02;;;;;;;9.52;4.78;;;;;;;14.49;100.00;102017.63;5172325;28;20815;-67
2021/08/29 01:10:35;;;;;;;10.38;5.15;;;;;;;14.43;100.00;102022.50;5171029;28;20093;-67
2021/08/29 01:13:12;;;;;;;9.48;4.82;;;;;;;14.51;100.00;102023.59;5173273;28;20027;-67
2021/08/29 01:15:47;;;;;;;11.27;5.10;;;;;;;14.44;100.00;102021.56;5170856;28;20109;-67
2021/08/29 01:18:21;;;;;;;11.50;5.32;;;;;;;14.46;100.00;102024.91;5172078;28;20467;-68
2021/08/29 01:21:04;;;;;;;13.07;6.18;;;;;;;14.54;100.00;102019.84;5172031;28;20014;-67
2021/08/29 01:23:38;;;;;;;7.88;4.40;;;;;;;14.51;100.00;102015.69;5170596;28;20037;-67
2021/08/29 01:26:20;;;;;;;10.20;4.97;;;;;;;14.51;100.00;102018.34;5172549;28;20110;-67
2021/08/29 01:29:00;;;;;;;10.68;5.15;;;;;;;14.57;100.00;102019.63;5171373;28;20544;-67
2021/08/29 01:31:34;;;;;;;10.05;4.82;;;;;;;14.51;100.00;102013.06;5171413;28;20040;-67
2021/08/29 01:34:12;;;;;;;11.63;4.97;;;;;;;14.58;100.00;102016.88;5171263;28;20022;-67
2021/08/29 01:36:46;;;;;;;12.20;5.43;;;;;;;14.54;100.00;102020.69;5171949;28;20027;-67
2021/08/29 01:39:19;;;;;;;10.65;4.78;;;;;;;14.62;100.00;102016.59;5171001;28;20089;-67
2021/08/29 01:41:52;;;;;;;9.27;5.18;;;;;;;14.63;100.00;102016.47;5172007;28;20034;-67
2021/08/29 01:44:25;;;;;;;12.80;5.65;;;;;;;14.62;100.00;102009.50;5171702;28;20382;-68
2021/08/29 01:46:57;;;;;;;8.73;4.93;;;;;;;14.63;100.00;102005.94;5170520;28;20058;-67
2021/08/29 01:49:30;;;;;;;10.65;5.05;;;;;;;14.64;100.00;102010.22;5169624;28;20132;-67
2021/08/29 01:52:02;;;;;;;10.18;4.95;;;;;;;14.68;100.00;102009.00;5171146;28;20392;-67
2021/08/29 01:54:33;;;;;;;9.30;4.75;;;;;;;14.68;100.00;102010.81;5171943;28;20018;-67
2021/08/29 01:57:15;;;;;;;12.80;5.38;;;;;;;14.69;100.00;102007.19;5170346;28;20504;-68
2021/08/29 01:59:47;;;;;;;7.75;4.65;;;;;;;14.70;100.00;102011.50;5171894;28;20404;-67
2021/08/29 02:02:18;;;;;;;10.60;5.05;;;;;;;14.71;100.00;102013.19;5166177;28;20031;-67
2021/08/29 02:04:49;;;;;;;11.13;5.00;;;;;;;14.70;100.00;102014.13;5170357;28;20034;-67
2021/08/29 02:07:37;;;;;;;10.80;5.25;;;;;;;14.79;100.00;102014.22;5171144;28;20086;-67
2021/08/29 02:10:11;;;;;;;13.27;5.03;;;;;;;14.69;100.00;102013.31;5169379;28;20061;-67
2021/08/29 02:13:03;;;;;;;8.23;4.95;;;;;;;14.81;100.00;102014.94;5171672;28;20476;-67
2021/08/29 02:15:39;;;;;;;9.65;4.70;;;;;;;14.74;100.00;102020.88;5171016;28;20046;-69
2021/08/29 02:18:13;;;;;;;8.73;4.90;;;;;;;14.75;100.00;102012.81;5171650;28;20026;-67
2021/08/29 02:20:47;;;;;;;9.77;5.35;;;;;;;14.77;100.00;102028.50;5170175;28;20461;-67
2021/08/29 02:23:21;;;;;;;10.18;4.93;;;;;;;14.74;100.00;102023.50;5171541;28;20023;-68
2021/08/29 02:25:53;;;;;;;11.48;4.95;;;;;;;14.73;100.00;102013.88;5170334;28;20027;-67
2021/08/29 02:28:28;;;;;;;10.07;5.40;;;;;;;14.73;100.00;102003.34;5170044;28;20081;-68
2021/08/29 02:31:00;;;;;;;12.52;5.38;;;;;;;14.73;100.00;102012.09;5170780;28;20034;-67
2021/08/29 02:33:31;;;;;;;9.35;4.63;;;;;;;14.79;100.00;102011.59;5171390;28;20424;-67
2021/08/29 02:36:03;;;;;;;11.45;5.25;;;;;;;14.81;100.00;102014.94;5172367;28;20032;-67
2021/08/29 02:38:34;;;;;;;8.30;4.70;;;;;;;14.81;100.00;102009.66;5174456;28;20038;-67
2021/08/29 02:41:06;;;;;;;10.40;5.50;;;;;;;14.81;100.00;102017.59;5175699;28;20492;-67
2021/08/29 02:43:39;;;;;;;10.40;4.25;;;;;;;14.83;100.00;102012.16;5175092;28;20404;-67
2021/08/29 02:46:11;;;;;;;9.23;4.85;;;;;;;14.84;100.00;102006.75;5174288;28;20038;-67
2021/08/29 02:48:48;;;;;;;10.40;4.60;;;;;;;14.86;100.00;102009.28;5172914;28;20489;-67
2021/08/29 02:51:23;;;;;;;6.95;4.53;;;;;;;14.92;100.00;102003.47;5173721;28;20050;-67
2021/08/29 02:53:55;;;;;;;11.00;5.13;;;;;;;14.88;100.00;102006.50;5173787;28;20532;-67
2021/08/29 02:56:29;;;;;;;9.13;4.57;;;;;;;14.90;100.00;102004.56;5172029;28;20035;-67
2021/08/29 02:59:00;;;;;;;7.38;4.63;;;;;;;14.89;100.00;102001.09;5171042;28;20058;-67
2021/08/29 03:01:31;;;;;;;8.60;4.85;;;;;;;14.90;100.00;102000.13;5168473;28;20113;-67
2021/08/29 03:04:03;;;;;;;14.05;4.60;;;;;;;14.97;100.00;102000.44;5174268;28;20019;-67
2021/08/29 03:06:35;;;;;;;9.85;4.10;;;;;;;14.93;100.00;101993.75;5174186;28;20023;-67
2021/08/29 03:09:06;;;;;;;10.27;4.43;;;;;;;14.95;100.00;101990.00;5172013;28;20047;-67
2021/08/29 03:11:38;;;;;;;9.50;5.07;;;;;;;14.94;100.00;101990.97;5173120;28;20054;-67
2021/08/29 03:14:10;;;;;;;9.05;4.97;;;;;;;14.95;100.00;101995.28;5173889;28;20085;-67
2021/08/29 03:16:41;;;;;;;8.43;4.38;;;;;;;14.97;100.00;101990.72;5172969;28;20503;-67
2021/08/29 03:19:14;;;;;;;8.00;4.45;;;;;;;14.99;100.00;101993.22;5171232;28;20033;-67
2021/08/29 03:21:45;;;;;;;10.65;4.35;;;;;;;14.99;100.00;101999.34;5172612;28;20085;-67
2021/08/29 03:24:17;;;;;;;9.40;4.82;;;;;;;14.96;100.00;101990.84;5172940;28;20559;-67
2021/08/29 03:26:49;;;;;;;9.40;4.60;;;;;;;14.95;100.00;101987.38;5173665;28;20022;-67
2021/08/29 03:29:20;;;;;;;7.75;4.57;;;;;;;14.98;100.00;101994.19;5170869;28;20038;-67
2021/08/29 03:31:52;;;;;;;8.25;4.85;;;;;;;14.98;100.00;101987.13;5172843;28;20037;-67
2021/08/29 03:34:24;;;;;;;8.65;5.03;;;;;;;14.98;100.00;101995.03;5173211;28;20033;-67
2021/08/29 03:36:56;;;;;;;8.40;4.70;;;;;;;14.99;100.00;101983.50;5173088;28;20424;-67
2021/08/29 03:39:29;;;;;;;9.60;4.75;;;;;;;14.99;100.00;101980.03;5171124;28;20113;-67
2021/08/29 03:42:02;;;;;;;8.70;4.55;;;;;;;15.00;100.00;101976.41;5172731;28;20023;-67
2021/08/29 03:44:33;;;;;;;10.57;5.15;;;;;;;14.99;100.00;101977.38;5173067;28;20026;-67
2021/08/29 03:47:05;;;;;;;8.77;4.57;;;;;;;14.98;100.00;101981.84;5134320;28;1142101;-67
2021/08/29 03:49:36;;;;;;;9.48;5.18;;;;;;;14.98;100.00;101973.91;5172596;28;20039;-67
2021/08/29 03:52:08;;;;;;;11.80;5.15;;;;;;;15.00;100.00;101971.13;5172684;28;20176;-66
2021/08/29 03:54:41;;;;;;;10.33;5.60;;;;;;;15.04;100.00;101978.69;5173630;28;20023;-66
2021/08/29 03:57:14;;;;;;;11.68;5.00;;;;;;;15.03;100.00;101974.34;5173369;28;20054;-67
2021/08/29 03:59:46;;;;;;;13.80;4.88;;;;;;;15.02;100.00;101975.31;5172739;28;20489;-66
2021/08/29 04:02:17;;;;;;;13.35;5.43;;;;;;;15.05;100.00;101976.88;5177359;28;20035;-66
2021/08/29 04:04:49;;;;;;;10.35;5.85;;;;;;;15.05;100.00;101977.72;5171345;28;20417;-66
2021/08/29 04:07:20;;;;;;;11.43;5.03;;;;;;;15.04;100.00;101964.66;5172447;28;20054;-66
2021/08/29 04:09:53;;;;;;;10.85;5.38;;;;;;;15.04;100.00;101968.13;5171897;28;20180;-67
2021/08/29 04:12:28;;;;;;;10.10;5.50;;;;;;;15.08;100.00;101966.91;5173877;28;20031;-66
2021/08/29 04:15:00;;;;;;;11.40;4.93;;;;;;;15.07;100.00;101972.28;5173407;28;20058;-66
2021/08/29 04:17:33;;;;;;;13.15;6.13;;;;;;;15.06;100.00;101965.34;5178815;28;20407;-67
2021/08/29 04:20:05;;;;;;;;;;;;;;;15.36;100.00;101964.50;5172705;28;20023;-66
2021/08/29 04:22:36;;;;;;;10.38;5.18;;;;;;;15.07;100.00;101964.38;5173736;28;19918;-67
2021/08/29 04:25:08;;;;;;;11.95;5.65;;;;;;;15.09;100.00;101963.28;5170941;28;20035;-67
2021/08/29 04:27:40;;;;;;;10.47;4.80;;;;;;;15.04;100.00;101965.50;5171666;28;20023;-67
2021/08/29 04:30:11;;;;;;;10.00;4.95;;;;;;;15.09;100.00;101959.81;5173059;28;20033;-67
2021/08/29 04:32:48;;;;;;;11.63;5.50;;;;;;;15.03;100.00;101958.50;5172600;28;20547;-67
2021/08/29 04:35:19;;;;;;;14.25;5.53;;;;;;;15.04;100.00;101952.28;5162501;28;20115;-66
2021/08/29 04:37:51;;;;;;;10.90;5.32;;;;;;;15.06;100.00;101954.78;5173910;28;20056;-67
2021/08/29 04:40:23;;;;;;;10.40;4.68;;;;;;;15.07;100.00;101954.63;5173540;28;20522;-67
2021/08/29 04:42:54;;;;;;;11.48;5.50;;;;;;;15.06;100.00;101952.97;5171822;28;20023;-67
2021/08/29 04:45:25;;;;;;;10.68;5.05;;;;;;;15.04;100.00;101959.38;5173134;28;20037;-66
2021/08/29 04:47:57;;;;;;;8.70;4.70;;;;;;;15.06;100.00;101952.16;5172915;28;20054;-66
2021/08/29 04:50:29;;;;;;;11.27;5.05;;;;;;;15.02;100.00;101956.84;5172495;28;20468;-66
2021/08/29 04:53:00;;;;;;;12.43;5.53;;;;;;;15.05;100.00;101958.41;5170385;28;20029;-66
2021/08/29 04:55:32;;;;;;;10.48;4.88;;;;;;;15.01;100.00;101955.19;5171297;28;20027;-66
2021/08/29 04:58:03;;;;;;;10.98;4.68;;;;;;;15.05;100.00;101961.88;5172255;28;20416;-67
2021/08/29 05:00:34;;;;;;;8.13;4.95;;;;;;;15.04;100.00;101965.50;5173067;28;20429;-67
2021/08/29 05:03:06;;;;;;;8.40;4.70;;;;;;;15.06;100.00;101968.81;5160661;28;20061;-66
2021/08/29 05:05:37;;;;;;;9.45;5.25;;;;;;;15.09;100.00;101965.91;5172037;28;20045;-66
2021/08/29 05:08:08;;;;;;;8.90;4.65;;;;;;;15.09;100.00;101959.81;5171039;28;20023;-66
2021/08/29 05:10:39;;;;;;;9.35;5.38;;;;;;;15.12;100.00;101958.72;5172777;28;20026;-66
2021/08/29 05:13:11;;;;;;;7.47;4.60;;;;;;;15.07;100.00;101956.44;5173312;28;20383;-67
2021/08/29 05:15:42;;;;;;;8.63;4.75;;;;;;;15.08;100.00;101966.91;5171587;28;20555;-67
2021/08/29 05:18:13;;;;;;;9.00;4.93;;;;;;;15.13;100.00;101955.09;5171564;28;20026;-66
2021/08/29 05:20:44;;;;;;;11.02;5.10;;;;;;;15.09;100.00;101957.16;5171799;28;20057;-67
2021/08/29 05:23:16;;;;;;;9.20;4.93;;;;;;;15.08;100.00;101960.78;5172579;28;20477;-66
2021/08/29 05:25:47;;;;;;;10.00;5.10;;;;;;;15.09;100.00;101959.81;5171180;28;20031;-67
2021/08/29 05:28:19;;;;;;;8.65;5.55;;;;;;;15.11;100.00;101964.94;5170324;28;20488;-67
2021/08/29 05:30:50;;;;;;;9.40;5.27;;;;;;;15.12;100.00;101956.91;5170087;28;20059;-66
2021/08/29 05:33:22;;;;;;;11.00;5.00;;;;;;;15.12;100.00;101962.19;5172174;28;20023;-67
2021/08/29 05:35:53;;;;;;;9.25;4.88;;;;;;;15.14;100.00;101964.69;5170499;28;20053;-67
2021/08/29 05:38:24;;;;;;;11.05;5.22;;;;;;;15.14;100.00;101967.31;5170963;28;20037;-67
2021/08/29 05:40:56;;;;;;;13.38;5.22;;;;;;;15.18;100.00;101964.28;5170892;28;20473;-67
2021/08/29 05:43:27;;;;;;;8.70;4.70;;;;;;;15.19;100.00;101980.94;5172478;28;20027;-67
2021/08/29 05:45:58;;;;;;;11.07;4.28;;;;;;;15.17;100.00;101969.69;5170162;28;20085;-67
2021/08/29 05:48:31;;;;;;;9.52;4.70;;;;;;;15.21;100.00;101974.56;5171555;28;20039;-67
2021/08/29 05:51:02;;;;;;;9.93;4.50;;;;;;;15.21;100.00;101966.66;5172073;28;20404;-67
2021/08/29 05:53:33;;;;;;;9.75;4.43;;;;;;;15.22;100.00;101968.31;5171447;28;20023;-67
2021/08/29 05:56:05;;;;;;;9.02;4.32;;;;;;;15.26;100.00;101975.00;5169336;28;20070;-67
2021/08/29 05:58:36;;;;;;;8.65;4.60;;;;;;;15.25;100.00;101968.06;5172043;28;20442;-67
2021/08/29 06:01:12;;;;;;;11.38;4.40;;;;;;;15.31;100.00;101967.53;5172058;28;20106;-67
2021/08/29 06:03:43;;;;;;;9.98;4.93;;;;;;;15.29;100.00;101974.75;5168924;28;20077;-67
2021/08/29 06:06:14;;;;;;;8.75;4.40;;;;;;;15.31;100.00;101970.19;5170685;28;20030;-67
2021/08/29 06:08:46;;;;;;;9.18;4.75;;;;;;;15.34;100.00;101963.78;5171380;28;20110;-67
2021/08/29 06:11:17;;;;;;;10.02;4.22;;;;;;;15.34;100.00;101961.13;5171219;28;20023;-67
2021/08/29 06:13:48;;;;;;;9.73;4.75;;;;;;;15.35;100.00;101968.09;5177599;28;20049;-67
2021/08/29 06:16:20;;;;;;;11.38;4.63;;;;;;;15.38;100.00;101956.44;5170290;28;20086;-67
2021/08/29 06:18:51;;;;;;;10.55;4.47;;;;;;;15.42;100.00;101952.53;5171401;28;20492;-67
2021/08/29 06:21:24;;;;;;;18.88;4.40;;;;;;;15.41;100.00;101953.53;5167415;28;20536;-67
2021/08/29 06:23:55;;;;;;;11.27;4.28;;;;;;;15.48;100.00;101957.28;5170082;28;20079;-67
2021/08/29 06:26:26;;;;;;;10.88;4.68;;;;;;;15.49;100.00;101956.31;5171693;28;20058;-67
2021/08/29 06:28:58;;;;;;;10.13;4.45;;;;;;;15.55;100.00;101961.06;5170821;28;20053;-68
2021/08/29 06:31:29;;;;;;;7.93;4.13;;;;;;;15.57;100.00;101959.16;5172276;28;20072;-67
2021/08/29 06:34:00;;;;;;;10.55;5.15;;;;;;;15.62;100.00;101962.22;5170478;28;20035;-67
2021/08/29 06:36:31;;;;;;;10.48;4.40;;;;;;;15.65;100.00;101963.75;5172057;28;20097;-67
2021/08/29 06:39:04;;;;;;;11.43;4.43;;;;;;;15.70;100.00;101962.38;5171553;28;20484;-68
2021/08/29 06:41:35;;;;;;;9.67;4.37;;;;;;;15.76;100.00;101961.03;5169988;28;20035;-67
2021/08/29 06:44:06;;;;;;;10.55;4.68;;;;;;;15.78;100.00;101953.78;5169471;28;20649;-68
2021/08/29 06:46:38;;;;;;;12.35;4.43;;;;;;;15.79;100.00;101950.97;5169922;28;20106;-68
2021/08/29 06:49:09;;;;;;;11.20;4.60;;;;;;;15.84;100.00;101945.31;5170990;28;20030;-67
2021/08/29 06:51:40;;;;;;;12.02;4.38;;;;;;;15.89;100.00;101956.28;5168877;28;20027;-67
2021/08/29 06:54:12;;;;;;;10.48;4.78;;;;;;;15.93;100.00;101949.75;5161691;28;20015;-67
2021/08/29 06:56:43;;;;;;;7.45;3.88;;;;;;;15.95;100.00;101950.47;5170863;28;20035;-68
2021/08/29 06:59:14;;;;;;;10.93;3.95;;;;;;;16.00;100.00;101957.97;5170271;28;20027;-68
2021/08/29 07:01:46;;;;;;;11.10;3.78;;;;;;;16.03;100.00;101955.06;5170607;28;20050;-68
2021/08/29 07:04:17;;;;;;;9.05;3.95;;;;;;;16.08;100.00;101958.13;5171018;28;20072;-68
2021/08/29 07:06:48;;;;;;;11.18;4.13;;;;;;;16.12;100.00;101953.38;5169470;28;20023;-68
2021/08/29 07:09:19;;;;;;;12.77;5.00;;;;;;;16.09;100.00;101946.56;5170716;28;20058;-68
2021/08/29 07:11:51;;;;;;;10.02;4.05;;;;;;;16.15;100.00;101951.31;5161378;28;20030;-68
2021/08/29 07:14:22;;;;;;;11.48;4.38;;;;;;;16.19;100.00;101951.84;5169612;28;20058;-68
2021/08/29 07:16:53;;;;;;;9.63;3.20;;;;;;;16.18;100.00;101948.38;5170023;28;20039;-68
2021/08/29 07:19:25;;;;;;;14.38;3.70;;;;;;;16.18;100.00;101951.03;5171080;28;20046;-68
2021/08/29 07:21:56;;;;;;;10.77;3.58;;;;;;;16.19;100.00;101955.34;5170958;28;20025;-68
2021/08/29 07:24:27;;;;;;;11.40;3.85;;;;;;;16.24;100.00;101957.56;5173081;28;20093;-68
2021/08/29 07:26:58;;;;;;;11.50;3.65;;;;;;;16.27;100.00;101952.00;5173282;28;20411;-68
2021/08/29 07:29:30;;;;;;;10.93;4.18;;;;;;;16.24;100.00;101958.38;5173809;28;20019;-68
2021/08/29 07:32:02;;;;;;;10.00;3.85;;;;;;;16.27;100.00;101958.09;5173766;28;20049;-68
2021/08/29 07:34:34;;;;;;;11.98;3.80;;;;;;;16.33;100.00;101948.78;5172028;28;20046;-68
2021/08/29 07:37:05;;;;;;;7.65;3.50;;;;;;;16.36;100.00;101955.59;5172362;28;20035;-68
2021/08/29 07:39:37;;;;;;;10.73;3.38;;;;;;;16.39;100.00;101950.84;5173507;28;20054;-67
2021/08/29 07:42:08;;;;;;;10.32;3.38;;;;;;;16.42;100.00;101955.88;5172622;28;20039;-67
2021/08/29 07:44:39;;;;;;;14.05;3.75;;;;;;;16.43;100.00;101954.88;5173932;28;20030;-67
2021/08/29 07:47:11;;;;;;;11.52;3.53;;;;;;;16.42;100.00;101949.75;5170349;28;20054;-67
2021/08/29 07:49:42;;;;;;;11.32;4.20;;;;;;;16.45;100.00;101952.13;5169590;28;20080;-67
2021/08/29 07:52:13;;;;;;;11.52;3.80;;;;;;;16.44;100.00;101951.28;5168437;28;20030;-68
2021/08/29 07:54:44;;;;;;;14.00;3.95;;;;;;;16.44;100.00;101953.06;5170963;28;20037;-68
2021/08/29 07:57:16;;;;;;;10.82;3.20;;;;;;;16.41;100.00;101951.56;5165613;28;20035;-67
2021/08/29 07:59:47;;;;;;;11.07;3.35;;;;;;;16.42;100.00;101940.00;5166066;28;20054;-67
2021/08/29 08:02:18;;;;;;;10.75;3.33;;;;;;;16.42;100.00;101947.09;5169607;28;20034;-67
2021/08/29 08:04:50;;;;;;;14.43;3.90;;;;;;;16.44;100.00;101940.72;5168811;28;22002;-67
2021/08/29 08:07:21;;;;;;;8.65;3.10;;;;;;;16.45;100.00;101941.53;5170310;28;20425;-67
2021/08/29 08:09:52;;;;;;;11.73;3.50;;;;;;;16.46;100.00;101937.91;5169618;28;20034;-67
2021/08/29 08:12:24;;;;;;;11.52;3.60;;;;;;;16.45;100.00;101945.00;5168203;28;20286;-67
2021/08/29 08:14:55;;;;;;;10.13;3.30;;;;;;;16.44;100.00;101939.84;5169275;28;20034;-68
2021/08/29 08:17:26;;;;;;;10.90;4.00;;;;;;;16.45;100.00;101939.72;5166277;28;20255;-67
2021/08/29 08:19:57;;;;;;;6.75;2.80;;;;;;;16.51;100.00;101940.97;5155761;28;20080;-67
2021/08/29 08:22:29;;;;;;;11.82;3.33;;;;;;;16.50;100.00;101948.06;5167358;28;21017;-67
2021/08/29 08:25:00;;;;;;;8.20;2.92;;;;;;;16.51;100.00;101943.59;5167896;28;20029;-67
2021/08/29 08:27:31;;;;;;;12.13;3.00;;;;;;;16.54;100.00;101938.84;5169070;28;20027;-67
2021/08/29 08:30:04;;;;;;;16.17;3.30;;;;;;;16.58;100.00;101939.41;5169138;28;20034;-67
2021/08/29 08:32:35;;;;;;;11.77;3.80;;;;;;;16.60;100.00;101940.13;5167074;28;20033;-67
2021/08/29 08:35:07;;;;;;;11.35;3.40;;;;;;;16.64;100.00;101935.38;5166240;28;20070;-67
2021/08/29 08:37:38;;;;;;;16.30;3.88;;;;;;;16.62;100.00;101947.91;5169031;28;20027;-67
2021/08/29 08:40:10;;;;;;;7.97;2.92;;;;;;;16.66;100.00;101957.22;5167868;28;20038;-67
2021/08/29 08:42:42;;;;;;;10.40;3.03;;;;;;;16.67;100.00;101946.50;5165397;28;20037;-67
2021/08/29 08:45:14;;;;;;;15.18;3.67;;;;;;;16.62;100.00;101948.72;5168421;28;20274;-67
2021/08/29 08:47:45;;;;;;;9.25;3.10;;;;;;;16.63;100.00;101950.41;5168524;28;20069;-67
2021/08/29 08:50:17;;;;;;;9.68;2.80;;;;;;;16.67;100.00;101941.22;5167595;28;20085;-67
2021/08/29 08:52:49;;;;;;;8.95;3.47;;;;;;;16.69;100.00;101952.47;5169943;28;20034;-67
2021/08/29 08:55:21;;;;;;;11.50;3.53;;;;;;;16.72;100.00;101952.19;5171056;28;20369;-67
2021/08/29 08:57:52;;;;;;;10.20;3.03;;;;;;;16.67;100.00;101956.25;5170729;28;20030;-67
2021/08/29 09:00:25;;;;;;;9.95;2.65;;;;;;;16.64;100.00;101957.38;5169428;28;20370;-67
2021/08/29 09:02:56;;;;;;;10.18;3.47;;;;;;;16.60;100.00;101955.16;5170905;28;20477;-67
2021/08/29 09:05:28;;;;;;;12.77;3.30;;;;;;;16.62;100.00;101951.38;5170703;28;20038;-67
2021/08/29 09:07:59;;;;;;;12.05;3.42;;;;;;;16.64;100.00;101949.44;5170362;28;20564;-67
2021/08/29 09:10:30;;;;;;;9.77;3.40;;;;;;;16.66;100.00;101954.56;5164665;28;20069;-67
2021/08/29 09:13:06;;;;;;;9.10;3.20;;;;;;;16.70;100.00;101948.84;5169234;28;20026;-67
2021/08/29 09:15:37;;;;;;;9.07;3.50;;;;;;;16.71;100.00;101953.19;5169412;28;20026;-67
2021/08/29 09:18:11;;;;;;;10.43;3.33;;;;;;;16.72;100.00;101949.56;5171299;28;20503;-67
2021/08/29 09:20:42;;;;;;;9.13;2.95;;;;;;;16.74;100.00;101941.50;5167590;28;20365;-67
2021/08/29 09:23:14;;;;;;;12.13;3.42;;;;;;;16.72;100.00;101951.38;5168124;28;20500;-67
2021/08/29 09:25:45;;;;;;;11.63;2.78;;;;;;;16.67;100.00;101954.44;5169825;28;20027;-67
2021/08/29 09:28:17;;;;;;;9.40;2.97;;;;;;;16.65;100.00;101955.56;5169240;28;20023;-67
2021/08/29 09:30:49;;;;;;;9.77;2.88;;;;;;;16.59;100.00;101943.72;5146504;28;20489;-67
2021/08/29 09:33:21;;;;;;;16.35;3.42;;;;;;;16.57;100.00;101944.84;5129764;28;20086;-66
2021/08/29 09:35:54;;;;;;;12.17;3.60;;;;;;;16.51;100.00;101939.13;5162553;28;20023;-67
2021/08/29 09:38:25;;;;;;;11.05;3.90;;;;;;;16.51;100.00;101939.13;5170998;28;20025;-67
2021/08/29 09:40:56;;;;;;;12.88;3.28;;;;;;;16.56;100.00;101948.50;5150405;28;20482;-67
2021/08/29 09:43:36;;;;;;;10.88;3.70;;;;;;;16.64;100.00;101946.78;5176271;28;20464;-67
2021/08/29 09:46:08;;;;;;;8.00;3.17;;;;;;;16.59;100.00;101948.19;5115353;28;20046;-66
2021/08/29 09:48:45;;;;;;;11.60;3.58;;;;;;;16.60;100.00;101942.75;5163997;28;20192;-67
2021/08/29 09:51:16;;;;;;;10.35;3.45;;;;;;;16.53;100.00;101953.06;5163207;28;22037;-66
2021/08/29 09:53:48;;;;;;;10.45;3.65;;;;;;;16.55;100.00;101944.97;5164083;28;20023;-67
2021/08/29 09:56:27;;;;;;;10.40;3.35;;;;;;;16.50;100.00;101941.94;5159781;28;20042;-67
2021/08/29 09:58:58;;;;;;;9.32;3.30;;;;;;;16.47;100.00;101948.34;5161230;28;20031;-67
2021/08/29 10:01:29;;;;;;;11.85;3.47;;;;;;;16.44;100.00;101946.00;5170008;28;20116;-66
2021/08/29 10:04:16;;;;;;;10.45;3.20;;;;;;;16.54;100.00;101940.69;5162940;28;20019;-66
2021/08/29 10:06:47;;;;;;;8.73;3.78;;;;;;;16.42;100.00;101944.47;5163085;28;20476;-67
2021/08/29 10:09:26;;;;;;;10.60;3.03;;;;;;;16.46;100.00;101946.69;5169062;28;20038;-67
2021/08/29 10:11:57;;;;;;;8.60;3.50;;;;;;;16.43;100.00;101946.13;5173730;28;20030;-66
2021/08/29 10:14:31;;;;;;;13.45;4.07;;;;;;;16.56;100.00;101943.19;5170440;28;20348;-66
2021/08/29 10:17:04;;;;;;;14.82;4.00;;;;;;;16.54;100.00;101940.69;5169366;28;20059;-66
2021/08/29 10:19:37;;;;;;;8.57;3.00;;;;;;;16.59;100.00;101940.25;5169971;28;20039;-66
2021/08/29 10:22:08;;;;;;;8.30;3.22;;;;;;;16.53;100.00;101931.91;5167933;28;20038;-66
2021/08/29 10:24:41;;;;;;;9.35;3.53;;;;;;;16.57;100.00;101928.97;5171748;28;20208;-66
2021/08/29 10:27:17;;;;;;;10.07;3.25;;;;;;;16.66;100.00;101934.22;5171749;28;20077;-66
2021/08/29 10:29:49;;;;;;;13.90;4.50;;;;;;;16.63;100.00;101926.63;5173514;28;20555;-66
2021/08/29 10:32:40;;;;;;;11.30;4.35;;;;;;;16.78;100.00;101922.56;5166448;28;20428;-67
2021/08/29 10:35:14;;;;;;;14.48;4.05;;;;;;;16.74;100.00;101926.47;5159304;28;20035;-66
2021/08/29 10:37:46;;;;;;;10.32;3.97;;;;;;;16.69;100.00;101927.84;5160338;28;20569;-67
2021/08/29 10:40:18;;;;;;;10.50;3.60;;;;;;;16.74;100.00;101926.47;5168394;28;20035;-68
2021/08/29 10:42:52;;;;;;;9.82;4.13;;;;;;;16.71;100.00;101924.06;5167141;28;20453;-68
2021/08/29 10:45:24;;;;;;;10.63;3.60;;;;;;;16.68;100.00;101919.06;5169573;28;20148;-68
2021/08/29 10:47:57;;;;;;;13.10;4.07;;;;;;;16.69;100.00;101918.06;5165270;28;20043;-68
2021/08/29 10:50:29;;;;;;;9.50;3.75;;;;;;;16.67;100.00;101925.34;5176456;28;20039;-68
2021/08/29 10:53:00;;;;;;;10.48;3.40;;;;;;;16.65;100.00;101905.28;5172874;28;20038;-69
2021/08/29 10:55:31;;;;;;;14.70;4.35;;;;;;;16.68;100.00;101916.41;5171667;28;20483;-67
2021/08/29 10:58:03;;;;;;;8.77;3.70;;;;;;;16.73;100.00;101913.34;5175327;28;20045;-67
2021/08/29 11:00:34;;;;;;;17.48;4.43;;;;;;;16.81;100.00;101916.13;5176096;28;20054;-67
2021/08/29 11:03:26;;;;;;;9.02;3.65;;;;;;;16.98;100.00;101906.59;5176280;28;20019;-67
2021/08/29 11:05:59;;;;;;;10.43;4.18;;;;;;;16.76;100.00;101907.78;5177662;28;20030;-67
2021/08/29 11:08:31;;;;;;;12.95;3.88;;;;;;;16.66;100.00;101906.94;5179484;28;20026;-67
2021/08/29 11:11:02;;;;;;;11.80;3.65;;;;;;;16.63;100.00;101892.22;5175405;28;20028;-67
2021/08/29 11:13:39;;;;;;;11.70;3.83;;;;;;;16.63;100.00;101899.28;5178641;28;20480;-68
2021/08/29 11:16:12;;;;;;;13.00;3.47;;;;;;;16.64;100.00;101893.03;5179027;28;20110;-67
2021/08/29 11:19:01;;;;;;;11.80;3.90;;;;;;;16.80;100.00;101890.63;5173861;28;20147;-67
2021/08/29 11:21:36;;;;;;;17.52;4.82;;;;;;;16.66;100.00;101889.25;5170654;28;20074;-67
2021/08/29 11:24:07;;;;;;;10.60;3.75;;;;;;;16.64;100.00;101891.22;5176549;28;20555;-68
2021/08/29 11:26:42;;;;;;;9.45;4.18;;;;;;;16.70;100.00;101897.75;5178398;28;20038;-68
2021/08/29 11:29:41;;;;;;;12.85;3.50;;;;;;;16.81;100.00;101902.06;5173779;28;20030;-68
2021/08/29 11:32:42;;;;;;;11.75;3.28;;;;;;;16.75;100.00;101904.31;5177373;28;20023;-69
2021/08/29 11:35:17;;;;;;;12.65;3.92;;;;;;;16.59;100.00;101897.91;5170214;28;20039;-69
2021/08/29 11:38:14;;;;;;;15.27;4.78;;;;;;;16.61;100.00;101901.25;5169237;28;20377;-68